sensor_id;sensor_type;location;lat;lon;timestamp;temperature;humidity
7317;DHT22;3699;51.462;6.696;2022-09-12T00:00:29;14.20;99.90
7317;DHT22;3699;51.462;6.696;2022-09-12T00:02:57;14.20;99.90
7317;DHT22;3699;51.462;6.696;2022-09-12T00:05:25;14.20;99.90
7317;DHT22;3699;51.462;6.696;2022-09-12T00:07:52;14.20;99.90
7317;DHT22;3699;51.462;6.696;2022-09-12T00:10:19;14.20;99.90
7317;DHT22;3699;51.462;6.696;2022-09-12T00:12:47;14.20;99.90
7317;DHT22;3699;51.462;6.696;2022-09-12T00:15:14;14.20;99.90
7317;DHT22;3699;51.462;6.696;2022-09-12T00:20:09;14.10;99.90
7317;DHT22;3699;51.462;6.696;2022-09-12T00:22:36;14.10;99.90
7317;DHT22;3699;51.462;6.696;2022-09-12T00:25:04;14.10;99.90
7317;DHT22;3699;51.462;6.696;2022-09-12T00:27:31;14.10;99.90
7317;DHT22;3699;51.462;6.696;2022-09-12T00:29:59;14.10;99.90
7317;DHT22;3699;51.462;6.696;2022-09-12T00:32:25;14.00;99.90
7317;DHT22;3699;51.462;6.696;2022-09-12T00:34:52;14.00;99.90
7317;DHT22;3699;51.462;6.696;2022-09-12T00:39:46;14.00;99.90
7317;DHT22;3699;51.462;6.696;2022-09-12T00:42:13;14.00;99.90
7317;DHT22;3699;51.462;6.696;2022-09-12T00:44:45;14.00;99.90
7317;DHT22;3699;51.462;6.696;2022-09-12T00:47:20;14.00;99.90
7317;DHT22;3699;51.462;6.696;2022-09-12T00:49:51;13.90;99.90
7317;DHT22;3699;51.462;6.696;2022-09-12T00:52:23;13.90;99.90
7317;DHT22;3699;51.462;6.696;2022-09-12T00:54:54;13.90;99.90
7317;DHT22;3699;51.462;6.696;2022-09-12T00:57:25;13.90;99.90
7317;DHT22;3699;51.462;6.696;2022-09-12T00:59:56;13.90;99.90
7317;DHT22;3699;51.462;6.696;2022-09-12T01:02:25;13.90;99.90
7317;DHT22;3699;51.462;6.696;2022-09-12T01:04:53;13.90;99.90
7317;DHT22;3699;51.462;6.696;2022-09-12T01:07:20;13.90;99.90
7317;DHT22;3699;51.462;6.696;2022-09-12T01:09:47;13.80;99.90
7317;DHT22;3699;51.462;6.696;2022-09-12T01:12:14;13.80;99.90
7317;DHT22;3699;51.462;6.696;2022-09-12T01:14:42;13.80;99.90
7317;DHT22;3699;51.462;6.696;2022-09-12T01:17:11;13.80;99.90
7317;DHT22;3699;51.462;6.696;2022-09-12T01:20:19;13.70;99.90
7317;DHT22;3699;51.462;6.696;2022-09-12T01:23:25;13.70;99.90
7317;DHT22;3699;51.462;6.696;2022-09-12T01:26:06;13.70;99.90
7317;DHT22;3699;51.462;6.696;2022-09-12T01:28:58;13.70;99.90
7317;DHT22;3699;51.462;6.696;2022-09-12T01:31:33;13.60;99.90
7317;DHT22;3699;51.462;6.696;2022-09-12T01:34:12;13.60;99.90
7317;DHT22;3699;51.462;6.696;2022-09-12T01:36:50;13.60;99.90
7317;DHT22;3699;51.462;6.696;2022-09-12T01:39:28;13.60;99.90
7317;DHT22;3699;51.462;6.696;2022-09-12T01:42:04;13.60;99.90
7317;DHT22;3699;51.462;6.696;2022-09-12T01:44:38;13.60;99.90
7317;DHT22;3699;51.462;6.696;2022-09-12T01:47:08;13.60;99.90
7317;DHT22;3699;51.462;6.696;2022-09-12T01:49:40;13.60;99.90
7317;DHT22;3699;51.462;6.696;2022-09-12T01:52:11;13.50;99.90
7317;DHT22;3699;51.462;6.696;2022-09-12T01:54:43;13.50;99.90
7317;DHT22;3699;51.462;6.696;2022-09-12T01:57:16;13.60;99.90
7317;DHT22;3699;51.462;6.696;2022-09-12T01:59:47;13.50;99.90
7317;DHT22;3699;51.462;6.696;2022-09-12T02:02:20;13.50;99.90
7317;DHT22;3699;51.462;6.696;2022-09-12T02:04:51;13.50;99.90
7317;DHT22;3699;51.462;6.696;2022-09-12T02:07:22;13.50;99.90
7317;DHT22;3699;51.462;6.696;2022-09-12T02:09:55;13.50;99.90
7317;DHT22;3699;51.462;6.696;2022-09-12T02:12:26;13.50;99.90
7317;DHT22;3699;51.462;6.696;2022-09-12T02:14:57;13.40;99.90
7317;DHT22;3699;51.462;6.696;2022-09-12T02:17:29;13.50;99.90
7317;DHT22;3699;51.462;6.696;2022-09-12T02:19:59;13.40;99.90
7317;DHT22;3699;51.462;6.696;2022-09-12T02:22:29;13.40;99.90
7317;DHT22;3699;51.462;6.696;2022-09-12T02:24:59;13.40;99.90
7317;DHT22;3699;51.462;6.696;2022-09-12T02:27:29;13.40;99.90
7317;DHT22;3699;51.462;6.696;2022-09-12T02:29:58;13.40;99.90
7317;DHT22;3699;51.462;6.696;2022-09-12T02:32:31;13.40;99.90
7317;DHT22;3699;51.462;6.696;2022-09-12T02:35:03;13.40;99.90
7317;DHT22;3699;51.462;6.696;2022-09-12T02:37:46;13.40;99.90
7317;DHT22;3699;51.462;6.696;2022-09-12T02:40:14;13.30;99.90
7317;DHT22;3699;51.462;6.696;2022-09-12T02:42:41;13.30;99.90
7317;DHT22;3699;51.462;6.696;2022-09-12T02:45:09;13.30;99.90
7317;DHT22;3699;51.462;6.696;2022-09-12T02:47:41;13.30;99.90
7317;DHT22;3699;51.462;6.696;2022-09-12T02:50:09;13.30;99.90
7317;DHT22;3699;51.462;6.696;2022-09-12T02:52:37;13.40;99.90
7317;DHT22;3699;51.462;6.696;2022-09-12T02:55:06;13.40;99.90
7317;DHT22;3699;51.462;6.696;2022-09-12T02:57:35;13.30;99.90
7317;DHT22;3699;51.462;6.696;2022-09-12T03:00:03;13.30;99.90
7317;DHT22;3699;51.462;6.696;2022-09-12T03:02:42;13.30;99.90
7317;DHT22;3699;51.462;6.696;2022-09-12T03:05:20;13.30;99.90
7317;DHT22;3699;51.462;6.696;2022-09-12T03:08:20;13.30;99.90
7317;DHT22;3699;51.462;6.696;2022-09-12T03:11:03;13.30;99.90
7317;DHT22;3699;51.462;6.696;2022-09-12T03:13:39;13.30;99.90
7317;DHT22;3699;51.462;6.696;2022-09-12T03:16:14;13.20;99.90
7317;DHT22;3699;51.462;6.696;2022-09-12T03:18:51;13.30;99.90
7317;DHT22;3699;51.462;6.696;2022-09-12T03:21:26;13.30;99.90
7317;DHT22;3699;51.462;6.696;2022-09-12T03:24:04;13.30;99.90
7317;DHT22;3699;51.462;6.696;2022-09-12T03:26:38;13.30;99.90
7317;DHT22;3699;51.462;6.696;2022-09-12T03:29:07;13.30;99.90
7317;DHT22;3699;51.462;6.696;2022-09-12T03:31:35;13.30;99.90
7317;DHT22;3699;51.462;6.696;2022-09-12T03:34:05;13.30;99.90
7317;DHT22;3699;51.462;6.696;2022-09-12T03:36:37;13.20;99.90
7317;DHT22;3699;51.462;6.696;2022-09-12T03:39:05;13.30;99.90
7317;DHT22;3699;51.462;6.696;2022-09-12T03:41:32;13.20;99.90
7317;DHT22;3699;51.462;6.696;2022-09-12T03:43:59;13.20;99.90
7317;DHT22;3699;51.462;6.696;2022-09-12T03:46:25;13.20;99.90
7317;DHT22;3699;51.462;6.696;2022-09-12T03:48:52;13.20;99.90
7317;DHT22;3699;51.462;6.696;2022-09-12T03:51:20;13.20;99.90
7317;DHT22;3699;51.462;6.696;2022-09-12T03:53:47;13.20;99.90
7317;DHT22;3699;51.462;6.696;2022-09-12T03:56:14;13.20;99.90
7317;DHT22;3699;51.462;6.696;2022-09-12T03:58:41;13.20;99.90
7317;DHT22;3699;51.462;6.696;2022-09-12T04:01:08;13.20;99.90
7317;DHT22;3699;51.462;6.696;2022-09-12T04:03:37;13.10;99.90
7317;DHT22;3699;51.462;6.696;2022-09-12T04:06:05;13.10;99.90
7317;DHT22;3699;51.462;6.696;2022-09-12T04:08:33;13.10;99.90
7317;DHT22;3699;51.462;6.696;2022-09-12T04:11:04;13.10;99.90
7317;DHT22;3699;51.462;6.696;2022-09-12T04:13:32;13.10;99.90
7317;DHT22;3699;51.462;6.696;2022-09-12T04:15:59;13.10;99.90
7317;DHT22;3699;51.462;6.696;2022-09-12T04:18:26;13.10;99.90
7317;DHT22;3699;51.462;6.696;2022-09-12T04:20:53;13.10;99.90
7317;DHT22;3699;51.462;6.696;2022-09-12T04:23:20;13.10;99.90
7317;DHT22;3699;51.462;6.696;2022-09-12T04:25:54;13.10;99.90
7317;DHT22;3699;51.462;6.696;2022-09-12T04:28:22;13.10;99.90
7317;DHT22;3699;51.462;6.696;2022-09-12T04:30:49;13.10;99.90
7317;DHT22;3699;51.462;6.696;2022-09-12T04:33:16;13.20;99.90
7317;DHT22;3699;51.462;6.696;2022-09-12T04:35:43;13.20;99.90
7317;DHT22;3699;51.462;6.696;2022-09-12T04:38:10;13.20;99.90
7317;DHT22;3699;51.462;6.696;2022-09-12T04:40:37;13.20;99.90
7317;DHT22;3699;51.462;6.696;2022-09-12T04:43:05;13.20;99.90
7317;DHT22;3699;51.462;6.696;2022-09-12T04:45:32;13.20;99.90
7317;DHT22;3699;51.462;6.696;2022-09-12T04:47:59;13.20;99.90
7317;DHT22;3699;51.462;6.696;2022-09-12T04:52:53;13.30;99.90
7317;DHT22;3699;51.462;6.696;2022-09-12T04:55:21;13.30;99.90
7317;DHT22;3699;51.462;6.696;2022-09-12T04:57:50;13.40;99.90
7317;DHT22;3699;51.462;6.696;2022-09-12T05:00:19;13.40;99.90
7317;DHT22;3699;51.462;6.696;2022-09-12T05:02:45;13.50;99.90
7317;DHT22;3699;51.462;6.696;2022-09-12T05:05:12;13.50;99.90
7317;DHT22;3699;51.462;6.696;2022-09-12T05:07:39;13.60;99.90
7317;DHT22;3699;51.462;6.696;2022-09-12T05:10:07;13.60;99.90
7317;DHT22;3699;51.462;6.696;2022-09-12T05:17:30;13.80;99.90
7317;DHT22;3699;51.462;6.696;2022-09-12T05:19:57;13.90;99.90
7317;DHT22;3699;51.462;6.696;2022-09-12T05:24:51;14.20;99.90
7317;DHT22;3699;51.462;6.696;2022-09-12T05:27:17;14.30;99.90
7317;DHT22;3699;51.462;6.696;2022-09-12T05:29:44;14.40;99.90
7317;DHT22;3699;51.462;6.696;2022-09-12T05:32:11;14.40;99.90
7317;DHT22;3699;51.462;6.696;2022-09-12T05:34:39;14.70;99.90
7317;DHT22;3699;51.462;6.696;2022-09-12T05:37:06;14.80;99.90
7317;DHT22;3699;51.462;6.696;2022-09-12T05:39:33;15.00;99.90
7317;DHT22;3699;51.462;6.696;2022-09-12T05:44:27;15.20;99.90
7317;DHT22;3699;51.462;6.696;2022-09-12T05:46:53;15.40;99.90
7317;DHT22;3699;51.462;6.696;2022-09-12T05:51:49;15.50;99.90
7317;DHT22;3699;51.462;6.696;2022-09-12T05:54:17;15.80;99.90
7317;DHT22;3699;51.462;6.696;2022-09-12T05:56:45;16.00;99.90
7317;DHT22;3699;51.462;6.696;2022-09-12T05:59:14;16.10;99.90
7317;DHT22;3699;51.462;6.696;2022-09-12T06:01:41;16.30;99.90
7317;DHT22;3699;51.462;6.696;2022-09-12T06:04:09;16.40;99.90
7317;DHT22;3699;51.462;6.696;2022-09-12T06:06:38;16.60;99.90
7317;DHT22;3699;51.462;6.696;2022-09-12T06:09:07;16.70;99.90
7317;DHT22;3699;51.462;6.696;2022-09-12T06:11:35;16.90;99.90
7317;DHT22;3699;51.462;6.696;2022-09-12T06:14:05;17.00;99.90
7317;DHT22;3699;51.462;6.696;2022-09-12T06:16:34;17.00;99.90
7317;DHT22;3699;51.462;6.696;2022-09-12T06:19:03;17.10;99.90
7317;DHT22;3699;51.462;6.696;2022-09-12T06:21:31;17.10;99.90
7317;DHT22;3699;51.462;6.696;2022-09-12T06:24:00;17.10;99.90
7317;DHT22;3699;51.462;6.696;2022-09-12T06:26:28;17.10;99.90
7317;DHT22;3699;51.462;6.696;2022-09-12T06:28:56;17.30;99.90
7317;DHT22;3699;51.462;6.696;2022-09-12T06:31:26;17.50;99.90
7317;DHT22;3699;51.462;6.696;2022-09-12T06:33:54;17.70;99.90
7317;DHT22;3699;51.462;6.696;2022-09-12T06:36:23;18.00;99.90
7317;DHT22;3699;51.462;6.696;2022-09-12T06:38:54;18.30;99.90
7317;DHT22;3699;51.462;6.696;2022-09-12T06:41:22;18.50;99.90
7317;DHT22;3699;51.462;6.696;2022-09-12T06:43:50;18.70;99.90
7317;DHT22;3699;51.462;6.696;2022-09-12T06:46:17;18.90;99.90
7317;DHT22;3699;51.462;6.696;2022-09-12T06:48:44;19.00;99.90
7317;DHT22;3699;51.462;6.696;2022-09-12T06:51:13;19.10;99.90
7317;DHT22;3699;51.462;6.696;2022-09-12T06:53:41;19.10;99.90
7317;DHT22;3699;51.462;6.696;2022-09-12T06:56:10;19.20;99.90
7317;DHT22;3699;51.462;6.696;2022-09-12T06:58:37;19.10;99.90
7317;DHT22;3699;51.462;6.696;2022-09-12T07:01:07;19.10;99.90
7317;DHT22;3699;51.462;6.696;2022-09-12T07:03:35;19.00;99.90
7317;DHT22;3699;51.462;6.696;2022-09-12T07:06:03;19.00;99.90
7317;DHT22;3699;51.462;6.696;2022-09-12T07:08:30;18.90;99.90
7317;DHT22;3699;51.462;6.696;2022-09-12T07:10:58;18.90;99.90
7317;DHT22;3699;51.462;6.696;2022-09-12T07:13:25;18.90;99.90
7317;DHT22;3699;51.462;6.696;2022-09-12T07:15:52;18.80;99.90
7317;DHT22;3699;51.462;6.696;2022-09-12T07:18:20;18.80;99.90
7317;DHT22;3699;51.462;6.696;2022-09-12T07:20:48;18.80;99.90
7317;DHT22;3699;51.462;6.696;2022-09-12T07:23:14;18.80;99.90
7317;DHT22;3699;51.462;6.696;2022-09-12T07:25:41;18.80;99.90
7317;DHT22;3699;51.462;6.696;2022-09-12T07:28:08;18.80;99.90
7317;DHT22;3699;51.462;6.696;2022-09-12T07:30:36;18.80;99.90
7317;DHT22;3699;51.462;6.696;2022-09-12T07:33:03;18.80;99.90
7317;DHT22;3699;51.462;6.696;2022-09-12T07:35:33;18.80;99.90
7317;DHT22;3699;51.462;6.696;2022-09-12T07:37:59;18.80;99.90
7317;DHT22;3699;51.462;6.696;2022-09-12T07:40:26;18.90;99.90
7317;DHT22;3699;51.462;6.696;2022-09-12T07:42:53;18.90;99.90
7317;DHT22;3699;51.462;6.696;2022-09-12T07:45:20;19.00;99.90
7317;DHT22;3699;51.462;6.696;2022-09-12T07:47:47;19.30;99.90
7317;DHT22;3699;51.462;6.696;2022-09-12T07:50:14;19.50;99.90
7317;DHT22;3699;51.462;6.696;2022-09-12T07:52:42;19.70;99.90
7317;DHT22;3699;51.462;6.696;2022-09-12T07:55:08;19.90;99.90
7317;DHT22;3699;51.462;6.696;2022-09-12T07:57:35;19.90;99.90
7317;DHT22;3699;51.462;6.696;2022-09-12T08:00:03;20.00;99.90
7317;DHT22;3699;51.462;6.696;2022-09-12T08:02:31;20.10;99.90
7317;DHT22;3699;51.462;6.696;2022-09-12T08:04:57;20.10;99.90
7317;DHT22;3699;51.462;6.696;2022-09-12T08:07:24;20.20;99.90
7317;DHT22;3699;51.462;6.696;2022-09-12T08:09:52;20.30;99.90
7317;DHT22;3699;51.462;6.696;2022-09-12T08:12:19;20.50;99.90
7317;DHT22;3699;51.462;6.696;2022-09-12T08:14:46;20.80;99.90
7317;DHT22;3699;51.462;6.696;2022-09-12T08:17:14;21.10;99.90
7317;DHT22;3699;51.462;6.696;2022-09-12T08:24:36;21.90;99.90
7317;DHT22;3699;51.462;6.696;2022-09-12T08:27:05;22.10;99.90
7317;DHT22;3699;51.462;6.696;2022-09-12T08:29:32;22.40;99.90
7317;DHT22;3699;51.462;6.696;2022-09-12T08:31:59;22.60;99.90
7317;DHT22;3699;51.462;6.696;2022-09-12T08:34:25;22.70;99.90
7317;DHT22;3699;51.462;6.696;2022-09-12T08:36:52;22.80;99.90
7317;DHT22;3699;51.462;6.696;2022-09-12T08:39:19;23.00;99.90
7317;DHT22;3699;51.462;6.696;2022-09-12T08:41:48;23.20;99.90
7317;DHT22;3699;51.462;6.696;2022-09-12T08:44:48;23.20;99.90
7317;DHT22;3699;51.462;6.696;2022-09-12T08:47:20;23.30;99.90
7317;DHT22;3699;51.462;6.696;2022-09-12T08:49:54;23.40;99.90
7317;DHT22;3699;51.462;6.696;2022-09-12T08:52:26;23.50;99.90
7317;DHT22;3699;51.462;6.696;2022-09-12T08:54:55;23.50;99.90
7317;DHT22;3699;51.462;6.696;2022-09-12T08:57:22;23.50;99.90
7317;DHT22;3699;51.462;6.696;2022-09-12T08:59:51;23.50;99.90
7317;DHT22;3699;51.462;6.696;2022-09-12T09:05:32;23.40;99.90
7317;DHT22;3699;51.462;6.696;2022-09-12T09:08:22;23.50;99.90
7317;DHT22;3699;51.462;6.696;2022-09-12T09:10:58;23.90;99.90
7317;DHT22;3699;51.462;6.696;2022-09-12T09:13:36;24.20;99.90
7317;DHT22;3699;51.462;6.696;2022-09-12T09:16:29;24.40;99.90
7317;DHT22;3699;51.462;6.696;2022-09-12T09:18:58;24.60;99.90
7317;DHT22;3699;51.462;6.696;2022-09-12T09:21:30;24.60;99.90
7317;DHT22;3699;51.462;6.696;2022-09-12T09:24:02;24.80;99.90
7317;DHT22;3699;51.462;6.696;2022-09-12T09:26:38;24.90;99.90
7317;DHT22;3699;51.462;6.696;2022-09-12T09:29:13;25.10;99.90
7317;DHT22;3699;51.462;6.696;2022-09-12T09:31:44;25.20;99.90
7317;DHT22;3699;51.462;6.696;2022-09-12T09:34:16;25.20;99.90
7317;DHT22;3699;51.462;6.696;2022-09-12T09:36:48;25.30;99.90
7317;DHT22;3699;51.462;6.696;2022-09-12T09:39:23;25.40;99.90
7317;DHT22;3699;51.462;6.696;2022-09-12T09:42:04;25.50;99.90
7317;DHT22;3699;51.462;6.696;2022-09-12T09:44:34;25.50;99.90
7317;DHT22;3699;51.462;6.696;2022-09-12T09:47:03;25.50;99.90
7317;DHT22;3699;51.462;6.696;2022-09-12T09:49:32;25.40;99.90
7317;DHT22;3699;51.462;6.696;2022-09-12T09:51:59;25.30;99.90
7317;DHT22;3699;51.462;6.696;2022-09-12T09:54:30;25.30;99.90
7317;DHT22;3699;51.462;6.696;2022-09-12T09:59:29;25.40;99.90
7317;DHT22;3699;51.462;6.696;2022-09-12T10:01:58;25.40;99.90
7317;DHT22;3699;51.462;6.696;2022-09-12T10:04:31;25.60;99.90
7317;DHT22;3699;51.462;6.696;2022-09-12T10:07:01;25.80;99.90
7317;DHT22;3699;51.462;6.696;2022-09-12T10:09:29;25.90;99.90
7317;DHT22;3699;51.462;6.696;2022-09-12T10:11:58;25.90;99.90
7317;DHT22;3699;51.462;6.696;2022-09-12T10:14:37;26.00;99.90
7317;DHT22;3699;51.462;6.696;2022-09-12T10:17:20;26.10;99.60
7317;DHT22;3699;51.462;6.696;2022-09-12T10:19:49;26.10;99.90
7317;DHT22;3699;51.462;6.696;2022-09-12T10:22:19;26.10;97.40
7317;DHT22;3699;51.462;6.696;2022-09-12T10:24:48;26.10;99.70
7317;DHT22;3699;51.462;6.696;2022-09-12T10:27:19;26.10;96.10
7317;DHT22;3699;51.462;6.696;2022-09-12T10:29:49;26.10;99.40
7317;DHT22;3699;51.462;6.696;2022-09-12T10:32:23;26.00;98.40
7317;DHT22;3699;51.462;6.696;2022-09-12T10:34:57;26.10;99.70
7317;DHT22;3699;51.462;6.696;2022-09-12T10:37:29;26.20;98.00
7317;DHT22;3699;51.462;6.696;2022-09-12T10:39:58;26.20;97.40
7317;DHT22;3699;51.462;6.696;2022-09-12T10:42:47;26.30;97.50
7317;DHT22;3699;51.462;6.696;2022-09-12T10:45:24;26.30;99.20
7317;DHT22;3699;51.462;6.696;2022-09-12T10:47:52;26.30;96.30
7317;DHT22;3699;51.462;6.696;2022-09-12T10:50:27;26.30;96.50
7317;DHT22;3699;51.462;6.696;2022-09-12T10:52:54;26.40;95.30
7317;DHT22;3699;51.462;6.696;2022-09-12T10:55:27;26.40;94.70
7317;DHT22;3699;51.462;6.696;2022-09-12T10:58:27;26.50;94.30
7317;DHT22;3699;51.462;6.696;2022-09-12T11:01:01;26.50;92.50
7317;DHT22;3699;51.462;6.696;2022-09-12T11:03:40;26.50;90.20
7317;DHT22;3699;51.462;6.696;2022-09-12T11:06:15;26.50;92.60
7317;DHT22;3699;51.462;6.696;2022-09-12T11:09:05;26.60;92.30
7317;DHT22;3699;51.462;6.696;2022-09-12T11:11:52;26.60;89.80
7317;DHT22;3699;51.462;6.696;2022-09-12T11:14:36;26.60;90.00
7317;DHT22;3699;51.462;6.696;2022-09-12T11:17:15;26.50;86.90
7317;DHT22;3699;51.462;6.696;2022-09-12T11:19:58;26.40;88.90
7317;DHT22;3699;51.462;6.696;2022-09-12T11:22:39;26.40;88.00
7317;DHT22;3699;51.462;6.696;2022-09-12T11:25:24;26.50;87.40
7317;DHT22;3699;51.462;6.696;2022-09-12T11:30:53;26.60;88.10
7317;DHT22;3699;51.462;6.696;2022-09-12T11:33:38;26.70;87.10
7317;DHT22;3699;51.462;6.696;2022-09-12T11:36:19;26.70;84.70
7317;DHT22;3699;51.462;6.696;2022-09-12T11:39:01;26.60;84.80
7317;DHT22;3699;51.462;6.696;2022-09-12T11:41:32;26.70;84.20
7317;DHT22;3699;51.462;6.696;2022-09-12T11:44:05;26.80;84.70
7317;DHT22;3699;51.462;6.696;2022-09-12T11:46:38;26.90;81.60
7317;DHT22;3699;51.462;6.696;2022-09-12T11:49:12;26.90;75.10
7317;DHT22;3699;51.462;6.696;2022-09-12T11:51:46;26.90;79.10
7317;DHT22;3699;51.462;6.696;2022-09-12T11:54:21;26.80;76.80
7317;DHT22;3699;51.462;6.696;2022-09-12T11:56:54;26.90;77.40
7317;DHT22;3699;51.462;6.696;2022-09-12T11:59:32;26.90;78.60
7317;DHT22;3699;51.462;6.696;2022-09-12T12:02:02;27.00;76.50
7317;DHT22;3699;51.462;6.696;2022-09-12T12:04:36;27.00;77.50
7317;DHT22;3699;51.462;6.696;2022-09-12T12:07:06;26.90;75.30
7317;DHT22;3699;51.462;6.696;2022-09-12T12:09:35;27.00;76.80
7317;DHT22;3699;51.462;6.696;2022-09-12T12:12:06;27.00;76.80
7317;DHT22;3699;51.462;6.696;2022-09-12T12:14:37;27.00;73.00
7317;DHT22;3699;51.462;6.696;2022-09-12T12:17:13;27.00;68.00
7317;DHT22;3699;51.462;6.696;2022-09-12T12:19:41;27.00;65.70
7317;DHT22;3699;51.462;6.696;2022-09-12T12:22:15;27.00;71.20
7317;DHT22;3699;51.462;6.696;2022-09-12T12:25:03;26.90;66.00
7317;DHT22;3699;51.462;6.696;2022-09-12T12:27:49;26.70;65.10
7317;DHT22;3699;51.462;6.696;2022-09-12T12:30:57;26.60;65.30
7317;DHT22;3699;51.462;6.696;2022-09-12T12:33:51;26.50;66.00
7317;DHT22;3699;51.462;6.696;2022-09-12T12:36:38;26.50;68.30
7317;DHT22;3699;51.462;6.696;2022-09-12T12:48:33;26.30;62.80
7317;DHT22;3699;51.462;6.696;2022-09-12T12:51:34;26.40;64.30
7317;DHT22;3699;51.462;6.696;2022-09-12T12:54:03;26.30;67.50
7317;DHT22;3699;51.462;6.696;2022-09-12T12:56:37;26.20;63.80
7317;DHT22;3699;51.462;6.696;2022-09-12T12:59:16;26.20;64.30
7317;DHT22;3699;51.462;6.696;2022-09-12T13:01:48;26.20;66.90
7317;DHT22;3699;51.462;6.696;2022-09-12T13:04:18;26.20;63.30
7317;DHT22;3699;51.462;6.696;2022-09-12T13:06:55;26.10;66.20
7317;DHT22;3699;51.462;6.696;2022-09-12T13:09:27;26.20;62.90
7317;DHT22;3699;51.462;6.696;2022-09-12T13:11:58;26.20;63.40
7317;DHT22;3699;51.462;6.696;2022-09-12T13:14:48;26.20;61.60
7317;DHT22;3699;51.462;6.696;2022-09-12T13:17:24;26.20;63.80
7317;DHT22;3699;51.462;6.696;2022-09-12T13:19:53;26.20;60.10
7317;DHT22;3699;51.462;6.696;2022-09-12T13:22:37;26.30;64.90
7317;DHT22;3699;51.462;6.696;2022-09-12T13:25:18;26.30;64.70
7317;DHT22;3699;51.462;6.696;2022-09-12T13:27:59;26.40;65.80
7317;DHT22;3699;51.462;6.696;2022-09-12T13:30:30;26.40;66.00
7317;DHT22;3699;51.462;6.696;2022-09-12T13:33:05;26.30;63.60
7317;DHT22;3699;51.462;6.696;2022-09-12T13:35:42;26.40;62.20
7317;DHT22;3699;51.462;6.696;2022-09-12T13:38:17;26.40;63.20
7317;DHT22;3699;51.462;6.696;2022-09-12T13:40:56;26.50;60.60
7317;DHT22;3699;51.462;6.696;2022-09-12T13:43:35;26.50;63.00
7317;DHT22;3699;51.462;6.696;2022-09-12T13:46:05;26.60;65.50
7317;DHT22;3699;51.462;6.696;2022-09-12T13:48:33;26.60;65.40
7317;DHT22;3699;51.462;6.696;2022-09-12T13:51:01;26.60;62.20
7317;DHT22;3699;51.462;6.696;2022-09-12T13:53:43;26.50;61.20
7317;DHT22;3699;51.462;6.696;2022-09-12T13:56:15;26.50;64.90
7317;DHT22;3699;51.462;6.696;2022-09-12T13:58:50;26.50;65.10
7317;DHT22;3699;51.462;6.696;2022-09-12T14:01:21;26.50;63.50
7317;DHT22;3699;51.462;6.696;2022-09-12T14:03:49;26.60;64.90
7317;DHT22;3699;51.462;6.696;2022-09-12T14:06:45;26.60;64.20
7317;DHT22;3699;51.462;6.696;2022-09-12T14:09:14;26.60;61.20
7317;DHT22;3699;51.462;6.696;2022-09-12T14:11:42;26.60;63.60
7317;DHT22;3699;51.462;6.696;2022-09-12T14:14:18;26.60;60.70
7317;DHT22;3699;51.462;6.696;2022-09-12T14:16:48;26.50;60.80
7317;DHT22;3699;51.462;6.696;2022-09-12T14:19:19;26.40;60.10
7317;DHT22;3699;51.462;6.696;2022-09-12T14:21:47;26.40;62.10
7317;DHT22;3699;51.462;6.696;2022-09-12T14:26:43;26.40;64.90
7317;DHT22;3699;51.462;6.696;2022-09-12T14:29:13;26.50;62.30
7317;DHT22;3699;51.462;6.696;2022-09-12T14:31:41;26.40;63.30
7317;DHT22;3699;51.462;6.696;2022-09-12T14:34:12;26.40;61.60
7317;DHT22;3699;51.462;6.696;2022-09-12T14:36:42;26.30;61.60
7317;DHT22;3699;51.462;6.696;2022-09-12T14:39:18;26.30;63.20
7317;DHT22;3699;51.462;6.696;2022-09-12T14:41:46;26.10;62.90
7317;DHT22;3699;51.462;6.696;2022-09-12T14:44:16;26.10;64.70
7317;DHT22;3699;51.462;6.696;2022-09-12T14:46:45;26.10;65.90
7317;DHT22;3699;51.462;6.696;2022-09-12T14:49:16;26.10;64.30
7317;DHT22;3699;51.462;6.696;2022-09-12T14:51:52;26.10;64.50
7317;DHT22;3699;51.462;6.696;2022-09-12T14:54:38;26.10;62.10
7317;DHT22;3699;51.462;6.696;2022-09-12T14:57:35;26.10;64.20
7317;DHT22;3699;51.462;6.696;2022-09-12T15:00:21;26.00;66.20
7317;DHT22;3699;51.462;6.696;2022-09-12T15:02:49;25.90;64.20
7317;DHT22;3699;51.462;6.696;2022-09-12T15:05:21;25.90;62.00
7317;DHT22;3699;51.462;6.696;2022-09-12T15:07:57;25.80;63.50
7317;DHT22;3699;51.462;6.696;2022-09-12T15:10:27;25.70;64.10
7317;DHT22;3699;51.462;6.696;2022-09-12T15:13:19;25.60;65.90
7317;DHT22;3699;51.462;6.696;2022-09-12T15:15:47;25.60;65.90
7317;DHT22;3699;51.462;6.696;2022-09-12T15:18:15;25.60;64.30
7317;DHT22;3699;51.462;6.696;2022-09-12T15:20:45;25.60;65.40
7317;DHT22;3699;51.462;6.696;2022-09-12T15:23:19;25.60;65.70
7317;DHT22;3699;51.462;6.696;2022-09-12T15:25:47;25.60;64.30
7317;DHT22;3699;51.462;6.696;2022-09-12T15:28:17;25.60;66.90
7317;DHT22;3699;51.462;6.696;2022-09-12T15:30:45;25.60;65.20
7317;DHT22;3699;51.462;6.696;2022-09-12T15:33:13;25.60;63.10
7317;DHT22;3699;51.462;6.696;2022-09-12T15:35:40;25.60;64.40
7317;DHT22;3699;51.462;6.696;2022-09-12T15:38:08;25.50;66.10
7317;DHT22;3699;51.462;6.696;2022-09-12T15:40:35;25.60;66.70
7317;DHT22;3699;51.462;6.696;2022-09-12T15:43:02;25.60;67.50
7317;DHT22;3699;51.462;6.696;2022-09-12T15:45:31;25.50;67.10
7317;DHT22;3699;51.462;6.696;2022-09-12T15:47:58;25.40;65.40
7317;DHT22;3699;51.462;6.696;2022-09-12T15:50:27;25.40;66.50
7317;DHT22;3699;51.462;6.696;2022-09-12T15:52:54;25.40;64.90
7317;DHT22;3699;51.462;6.696;2022-09-12T15:55:24;25.30;64.10
7317;DHT22;3699;51.462;6.696;2022-09-12T15:57:51;25.30;66.10
7317;DHT22;3699;51.462;6.696;2022-09-12T16:00:19;25.20;66.60
7317;DHT22;3699;51.462;6.696;2022-09-12T16:02:47;25.10;68.00
7317;DHT22;3699;51.462;6.696;2022-09-12T16:05:17;25.20;66.70
7317;DHT22;3699;51.462;6.696;2022-09-12T16:07:44;25.10;67.80
7317;DHT22;3699;51.462;6.696;2022-09-12T16:10:14;25.10;67.80
7317;DHT22;3699;51.462;6.696;2022-09-12T16:12:43;25.00;68.60
7317;DHT22;3699;51.462;6.696;2022-09-12T16:15:12;25.00;67.80
7317;DHT22;3699;51.462;6.696;2022-09-12T16:17:40;25.00;69.00
7317;DHT22;3699;51.462;6.696;2022-09-12T16:20:08;25.00;68.70
7317;DHT22;3699;51.462;6.696;2022-09-12T16:22:35;25.00;70.50
7317;DHT22;3699;51.462;6.696;2022-09-12T16:25:02;25.00;70.60
7317;DHT22;3699;51.462;6.696;2022-09-12T16:27:29;25.10;69.60
7317;DHT22;3699;51.462;6.696;2022-09-12T16:29:57;25.10;69.20
7317;DHT22;3699;51.462;6.696;2022-09-12T16:32:24;25.10;70.00
7317;DHT22;3699;51.462;6.696;2022-09-12T16:34:50;25.10;69.20
7317;DHT22;3699;51.462;6.696;2022-09-12T16:37:18;25.00;67.70
7317;DHT22;3699;51.462;6.696;2022-09-12T16:39:44;25.10;69.00
7317;DHT22;3699;51.462;6.696;2022-09-12T16:42:14;25.10;71.90
7317;DHT22;3699;51.462;6.696;2022-09-12T16:47:10;25.10;71.10
7317;DHT22;3699;51.462;6.696;2022-09-12T16:49:37;25.10;71.10
7317;DHT22;3699;51.462;6.696;2022-09-12T16:52:04;25.00;70.00
7317;DHT22;3699;51.462;6.696;2022-09-12T16:54:31;25.00;70.90
7317;DHT22;3699;51.462;6.696;2022-09-12T16:56:58;25.00;71.70
7317;DHT22;3699;51.462;6.696;2022-09-12T16:59:25;24.90;72.50
7317;DHT22;3699;51.462;6.696;2022-09-12T17:01:52;24.90;72.70
7317;DHT22;3699;51.462;6.696;2022-09-12T17:04:20;24.90;72.00
7317;DHT22;3699;51.462;6.696;2022-09-12T17:06:47;24.90;72.30
7317;DHT22;3699;51.462;6.696;2022-09-12T17:09:14;24.80;72.90
7317;DHT22;3699;51.462;6.696;2022-09-12T17:11:44;24.70;73.20
7317;DHT22;3699;51.462;6.696;2022-09-12T17:14:11;24.70;72.30
7317;DHT22;3699;51.462;6.696;2022-09-12T17:16:39;24.60;74.10